Vremea acum in Braila - Romania

Vrei sa afli care e starea vremii acum in Braila - Romania? Dorim sa iti furnizam starea vremii pentru Braila - Romania. Starea vremii Braila - Romania pentru astazi.

Vremea acum in Braila

Temperatura: 14 °C

Se simte ca: 12.7 °C
Innorat: 75 %
Precipitatii: 0 %
Presiune atmosferica: 1021 hPa
Umiditate: 72%
Vizibilitate: 6 km
Vantul bate din NW cu 16.9 km/h

Evolutia vremii in Braila pe ore

Ora: 20:00
Parțial noros
Temperatura: 15.3°C
Sansa de precipitatii: 0%
Ora Descriere Temp Se simte Precipitatii Umiditate Vant
00:00Ploi pe porţiuni în apropiere15.4°15°71%69%NNW 14.8 KM/H
01:00Burniță uşoară pe porțiuni15°14.3°72%71%NNW 15.5 KM/H
02:00Ploi pe porţiuni în apropiere14.6°13.5°74%72%NNW 15.8 KM/H
03:00Parțial noros14.1°12.9°49%74%NNW 15.1 KM/H
04:00Ploi pe porţiuni în apropiere13.5°12.3°25%76%N 14.8 KM/H
05:00Parțial noros13°11.7°0%78%N 14 KM/H
06:00Parțial noros13.3°12°0%77%SW 14.4 KM/H
07:00Parțial noros13.5°12.3°0%77%ESE 15.1 KM/H
08:00Parțial noros13.8°12.6°0%76%N 15.5 KM/H
09:00Parțial noros15.3°14.5°0%70%N 15.8 KM/H
10:00Parțial noros16.8°16.4°0%63%N 16.6 KM/H
11:00Parțial noros18.3°18.3°0%57%NNE 16.9 KM/H
12:00Cer acoperit18.9°18.9°0%54%NNE 17.6 KM/H
13:00Parțial noros19.4°19.4°0%51%NNE 18 KM/H
14:00Cer acoperit20°20°0%48%NNE 18.7 KM/H
15:00Noros19.4°19.4°0%49%NNE 18 KM/H
16:00Cer acoperit18.9°18.9°0%50%NNE 17.6 KM/H
17:00Noros18.3°18.3°0%51%NNE 16.9 KM/H
18:00Parțial noros17.3°17.3°0%53%SE 16.6 KM/H
19:00Noros16.3°16.3°0%56%WSW 16.6 KM/H
20:00Parțial noros15.3°15.3°0%58%N 16.2 KM/H
21:00Parțial noros14.8°14.3°0%59%N 16.6 KM/H
22:00Parțial noros14.3°13.4°0%59%N 17.3 KM/H
23:00Parțial noros13.8°12.4°0%60%N 17.6 KM/H